Slayton, MN

2:23 AM CST on February 14, 2016 (GMT -0600)
Slayton

Weather History for KDVP - May, 2013

Change the Weather History Date:

Friday, May 10, 2013

  Actual Average (KOTG) Record (KOTG)
Temperature  
Mean Temperature 51 °F -  
Max Temperature 65 °F 63 °F 91 °F (1987)
Min Temperature 37 °F 43 °F 28 °F (1981)
Degree Days  
Heating Degree Days 14    
Growing Degree Days 1 (Base 50)    
Moisture  
Dew Point 34 °F    
Average Humidity 55    
Maximum Humidity 89    
Minimum Humidity 26    
Precipitation  
Precipitation 0.00 in - - ()
Sea Level Pressure  
Sea Level Pressure 30.08 in    
Wind  
Wind Speed 10 mph (NNW)    
Max Wind Speed 23 mph    
Max Gust Speed 34 mph    
Visibility 10 miles    
Events      
Averages and records for this station are not official NWS values.
T = Trace of Precipitation, MM = Missing Value Source: NWS Daily Summary

Daily Weather History Graph

Daily Weather History Graph

Search for Another Location

Airport or City:

Trip Planner

Search our weather history database for the weather conditions in past years. The results will help you decide how hot, cold, wet, or windy it might be!

Date:

Astronomy

May. 10, 2013 Rise Set
Actual Time 6:02 AM CDT 8:37 PM CDT
Civil Twilight 5:29 AM CDT 9:10 PM CDT
Nautical Twilight 4:48 AM CDT 9:51 PM CDT
Astronomical Twilight 4:02 AM CDT 10:38 PM CDT
Moon 6:27 AM CDT (5/10) 9:28 PM CDT (5/10)
Length of Visible Light 15h 40m
Length of Day
14h 34m
New Moon, 0% of the Moon is Illuminated
May 10
New Moon
May 17
First Quarter
May 24
Full
May 31
Last Quarter
Jun 8
New

Hourly Weather History & Observations

Time (CDT) Temp. Windchill Dew Point Humidity Pressure Visibility Wind Dir Wind Speed Gust Speed Precip Events Conditions
12:33 AM 42.8 °F 36.2 °F 39.7 °F 89% 30.13 in 10.0 mi North 12.7 mph - N/A   Clear
12:53 AM 42.1 °F 35.2 °F 38.7 °F 88% 30.13 in 10.0 mi North 12.7 mph - N/A   Clear
1:13 AM 41.5 °F 35.4 °F 37.4 °F 85% 30.13 in 10.0 mi NNE 10.4 mph - N/A   Clear
1:33 AM 41.9 °F 35.9 °F 36.5 °F 81% 30.12 in 10.0 mi NNE 10.4 mph 16.1 mph N/A   Scattered Clouds
1:54 AM 41.5 °F 35.9 °F 35.6 °F 79% 30.12 in 10.0 mi North 9.2 mph - N/A   Scattered Clouds
2:13 AM 41.2 °F 35.0 °F 34.7 °F 78% 30.12 in 10.0 mi NNE 10.4 mph - N/A   Mostly Cloudy
2:33 AM 40.8 °F 35.0 °F 34.2 °F 77% 30.12 in 10.0 mi NNE 9.2 mph - N/A   Scattered Clouds
2:54 AM 40.5 °F 34.1 °F 33.8 °F 77% 30.12 in 10.0 mi North 10.4 mph - N/A   Clear
3:14 AM 40.1 °F 34.1 °F 34.0 °F 79% 30.12 in 10.0 mi North 9.2 mph - N/A   Clear
3:53 AM 40.6 °F 33.4 °F 32.0 °F 71% 30.12 in 10.0 mi NNE 12.7 mph 17.3 mph N/A   Mostly Cloudy
4:14 AM 40.1 °F 34.1 °F 32.0 °F 73% 30.12 in 10.0 mi NNE 9.2 mph - N/A   Clear
4:54 AM 39.4 °F 35.2 °F 32.5 °F 76% 30.11 in 10.0 mi North 5.8 mph - N/A   Clear
5:14 AM 38.8 °F 32.1 °F 32.0 °F 76% 30.11 in 10.0 mi NE 10.4 mph - N/A   Clear
5:33 AM 38.5 °F 31.1 °F 31.1 °F 75% 30.11 in 10.0 mi NNE 11.5 mph - N/A   Clear
5:53 AM 38.1 °F 31.7 °F 30.4 °F 74% 30.11 in 10.0 mi NNE 9.2 mph 16.1 mph N/A   Clear
6:13 AM 37.6 °F 31.0 °F 30.2 °F 75% 30.12 in 10.0 mi NNE 9.2 mph - N/A   Clear
6:33 AM 37.4 °F 32.8 °F 30.7 °F 77% 30.12 in 10.0 mi NNE 5.8 mph - N/A   Clear
6:53 AM 38.3 °F 34.8 °F 30.9 °F 75% 30.13 in 10.0 mi North 4.6 mph - N/A   Clear
7:13 AM 38.5 °F 34.1 °F 32.5 °F 79% 30.13 in 10.0 mi North 5.8 mph - N/A   Clear
7:33 AM 39.2 °F 35.0 °F 32.0 °F 75% 30.13 in 10.0 mi North 5.8 mph - N/A   Clear
7:53 AM 39.7 °F 33.7 °F 31.8 °F 73% 30.14 in 10.0 mi North 9.2 mph - N/A   Clear
8:13 AM 40.1 °F 33.2 °F 32.0 °F 73% 30.13 in 10.0 mi North 11.5 mph - N/A   Clear
8:33 AM 41.0 °F 35.2 °F 32.2 °F 71% 30.14 in 10.0 mi North 9.2 mph - N/A   Clear
8:53 AM 41.4 °F 35.7 °F 32.9 °F 72% 30.14 in 10.0 mi North 9.2 mph - N/A   Clear
9:13 AM 42.6 °F 38.4 °F 33.1 °F 69% 30.14 in 10.0 mi North 6.9 mph - N/A   Clear
9:32 AM 43.2 °F 39.7 °F 32.5 °F 66% 30.13 in 10.0 mi North 5.8 mph - N/A   Clear
9:53 AM 44.2 °F 40.3 °F 33.1 °F 65% 30.13 in 10.0 mi North 6.9 mph - N/A   Clear
10:14 AM 45.9 °F 42.3 °F 35.4 °F 67% 30.13 in 10.0 mi North 6.9 mph - N/A   Clear
10:33 AM 47.5 °F - 36.5 °F 66% 30.12 in 10.0 mi NNW 8.1 mph - N/A   Clear
10:54 AM 48.2 °F - 37.4 °F 66% 30.12 in 10.0 mi NNW 6.9 mph - N/A   Clear
11:13 AM 50.2 °F - 38.5 °F 64% 30.12 in 10.0 mi North 6.9 mph - N/A   Clear
11:33 AM 51.8 °F - 38.3 °F 60% 30.12 in 10.0 mi NNW 8.1 mph - N/A   Clear
12:13 PM 54.3 °F - 36.7 °F 51% 30.12 in 10.0 mi NNW 9.2 mph - N/A   Clear
12:34 PM 56.3 °F - 33.6 °F 42% 30.11 in 10.0 mi NNW 10.4 mph - N/A   Clear
12:53 PM 56.3 °F - 29.5 °F 36% 30.11 in 10.0 mi WNW 6.9 mph - N/A   Clear
1:13 PM 56.7 °F - 27.7 °F 33% 30.10 in 10.0 mi North 8.1 mph - N/A   Clear
1:33 PM 57.9 °F - 25.9 °F 29% 30.10 in 10.0 mi North 6.9 mph - N/A   Clear
1:53 PM 59.0 °F - 28.2 °F 31% 30.09 in 10.0 mi NW 9.2 mph - N/A   Clear
2:13 PM 59.0 °F - 26.1 °F 28% 30.09 in 10.0 mi WNW 3.5 mph - N/A   Clear
2:32 PM 59.5 °F - 26.1 °F 28% 30.08 in 10.0 mi Calm Calm - N/A   Clear
2:53 PM 61.0 °F - 28.6 °F 29% 30.07 in 10.0 mi NNW 9.2 mph - N/A   Clear
3:13 PM 61.2 °F - 25.3 °F 26% 30.07 in 10.0 mi West 5.8 mph - N/A   Clear
3:33 PM 62.1 °F - 28.4 °F 28% 30.05 in 10.0 mi NNW 6.9 mph - N/A   Clear
3:54 PM 63.1 °F - 27.3 °F 26% 30.05 in 10.0 mi WNW 8.1 mph - N/A   Clear
4:14 PM 64.2 °F - 29.1 °F 27% 30.04 in 10.0 mi WNW 10.4 mph - N/A   Clear
4:33 PM 64.6 °F - 31.5 °F 29% 30.03 in 10.0 mi WNW 10.4 mph - N/A   Clear
4:53 PM 65.1 °F - 33.3 °F 31% 30.02 in 10.0 mi WNW 6.9 mph - N/A   Clear
5:13 PM 64.9 °F - 29.3 °F 26% 30.01 in 10.0 mi WSW 4.6 mph 18.4 mph N/A   Clear
5:34 PM 65.5 °F - 31.3 °F 28% 30.01 in 10.0 mi WNW 12.7 mph 16.1 mph N/A   Clear
5:53 PM 65.1 °F - 28.8 °F 26% 30.00 in 10.0 mi West 10.4 mph 16.1 mph N/A   Clear
6:12 PM 65.5 °F - 30.0 °F 26% 29.99 in 10.0 mi West 11.5 mph - N/A   Clear
6:33 PM 65.5 °F - 32.0 °F 29% 29.99 in 10.0 mi West 13.8 mph - N/A   Clear
6:53 PM 65.3 °F - 32.0 °F 29% 29.99 in 10.0 mi West 12.7 mph - N/A   Clear
7:14 PM 64.6 °F - 31.3 °F 29% 29.99 in 10.0 mi West 11.5 mph - N/A   Clear
7:33 PM 64.2 °F - 35.2 °F 34% 29.99 in 10.0 mi WNW 12.7 mph - N/A   Clear
7:53 PM 62.4 °F - 36.0 °F 37% 29.98 in 10.0 mi West 8.1 mph - N/A   Clear
8:13 PM 61.2 °F - 36.1 °F 39% 29.98 in 10.0 mi West 5.8 mph - N/A   Clear
8:34 PM 59.7 °F - 38.7 °F 46% 29.97 in 10.0 mi West 4.6 mph - N/A   Scattered Clouds
8:53 PM 59.4 °F - 39.2 °F 47% 29.97 in 10.0 mi WSW 6.9 mph - N/A   Mostly Cloudy
9:13 PM 57.9 °F - 41.2 °F 54% 29.98 in 10.0 mi WSW 9.2 mph - N/A   Scattered Clouds
9:33 PM 57.9 °F - 42.1 °F 56% 29.98 in 10.0 mi WSW 9.2 mph - N/A   Scattered Clouds
9:53 PM 58.5 °F - 42.1 °F 55% 29.98 in 10.0 mi WSW 10.4 mph - N/A   Mostly Cloudy
10:13 PM 58.8 °F - 41.7 °F 53% 29.99 in 10.0 mi West 9.2 mph - N/A   Overcast
10:32 PM 58.1 °F - 40.5 °F 52% 30.03 in 10.0 mi NNW 20.7 mph 32.2 mph N/A   Overcast
10:53 PM 54.5 °F - 39.9 °F 58% 30.03 in 10.0 mi NNW 20.7 mph 26.5 mph N/A   Mostly Cloudy
11:28 PM 52.0 °F - 36.9 °F 56% 30.05 in 10.0 mi NNW 23.0 mph 34.5 mph N/A   Scattered Clouds
11:34 PM 51.4 °F - 37.0 °F 58% 30.05 in 10.0 mi NNW 23.0 mph 34.5 mph N/A   Scattered Clouds
11:53 PM 50.0 °F - 35.8 °F 58% 30.06 in 10.0 mi NNW 19.6 mph 29.9 mph N/A   Scattered Clouds